Yankton, SD

12:36 PM CST on November 22, 2017 (GMT -0600)
Gurney Municipal

Weather History for KYKN - October, 2012

Change the Weather History Date:

Friday, October 5, 2012

  Actual Average Record
Temperature  
Mean Temperature 40 °F -  
Max Temperature 51 °F 68 °F 87 °F (1975)
Min Temperature 30 °F 41 °F 26 °F (1988)
Degree Days  
Heating Degree Days 24    
Moisture  
Dew Point 22 °F    
Average Humidity 54    
Maximum Humidity 80    
Minimum Humidity 28    
Precipitation  
Precipitation 0.00 in - - ()
Sea Level Pressure  
Sea Level Pressure 30.30 in    
Wind  
Wind Speed 10 mph (WNW)    
Max Wind Speed 23 mph    
Max Gust Speed 30 mph    
Visibility 10 miles    
Events      
Averages and records for this station are not official NWS values.
T = Trace of Precipitation, MM = Missing Value Source: NWS Daily Summary

Daily Weather History Graph

Daily Weather History Graph

Search for Another Location

Airport or City:

Trip Planner

Search our weather history database for the weather conditions in past years. The results will help you decide how hot, cold, wet, or windy it might be!

Date:

Astronomy

Oct. 05, 2012 Rise Set
Actual Time 7:31 AM CDT 7:02 PM CDT
Civil Twilight 7:03 AM CDT 7:31 PM CDT
Nautical Twilight 6:30 AM CDT 8:03 PM CDT
Astronomical Twilight 5:57 AM CDT 8:36 PM CDT
Moon 10:20 PM CDT (10/5) 12:47 PM CDT (10/5)
Length of Visible Light 12h 27m
Length of Day
11h 30m
Waning Gibbous, 74% of the Moon is Illuminated
Oct 5
Waning Gibbous
Oct 8
Last Quarter
Oct 15
New
Oct 21
First Quarter
Oct 29
Full

Hourly Weather History & Observations

Time (CDT) Temp. Windchill Dew Point Humidity Pressure Visibility Wind Dir Wind Speed Gust Speed Precip Events Conditions
12:15 AM 37.4 °F 32.8 °F 26.6 °F 65% 30.32 in 10.0 mi West 5.8 mph - N/A   Clear
12:35 AM 35.6 °F 31.7 °F 24.8 °F 65% 30.32 in 10.0 mi WNW 4.6 mph - N/A   Clear
12:55 AM 35.6 °F 31.7 °F 24.8 °F 65% 30.32 in 10.0 mi NW 4.6 mph - N/A   Clear
1:15 AM 35.6 °F 32.8 °F 24.8 °F 65% 30.31 in 10.0 mi NW 3.5 mph - N/A   Clear
1:35 AM 33.8 °F 27.7 °F 24.8 °F 70% 30.31 in 10.0 mi NW 6.9 mph - N/A   Clear
1:55 AM 33.8 °F 28.6 °F 24.8 °F 70% 30.31 in 10.0 mi NW 5.8 mph - N/A   Clear
2:15 AM 32.0 °F 28.7 °F 23.0 °F 69% 30.31 in 10.0 mi NW 3.5 mph - N/A   Clear
2:35 AM 32.0 °F - 23.0 °F 69% 30.31 in 10.0 mi Calm Calm - N/A   Clear
2:55 AM 33.8 °F - 24.8 °F 70% 30.31 in 10.0 mi Calm Calm - N/A   Clear
3:15 AM 33.8 °F - 24.8 °F 70% 30.31 in 10.0 mi Calm Calm - N/A   Clear
3:35 AM 33.8 °F 30.8 °F 24.8 °F 70% 30.30 in 10.0 mi West 3.5 mph - N/A   Clear
3:55 AM 33.8 °F 29.6 °F 24.8 °F 70% 30.31 in 10.0 mi West 4.6 mph - N/A   Clear
4:15 AM 33.8 °F 28.6 °F 23.0 °F 65% 30.31 in 10.0 mi West 5.8 mph - N/A   Clear
4:35 AM 32.0 °F 25.6 °F 24.8 °F 75% 30.30 in 10.0 mi WNW 6.9 mph - N/A   Clear
4:55 AM 32.0 °F 24.8 °F 24.8 °F 75% 30.31 in 10.0 mi WNW 8.1 mph - N/A   Clear
5:15 AM 30.2 °F 20.8 °F 23.0 °F 75% 30.30 in 10.0 mi WNW 11.5 mph - N/A   Clear
5:35 AM 32.0 °F 22.5 °F 24.8 °F 75% 30.29 in 10.0 mi NW 12.7 mph - N/A   Clear
5:55 AM 32.0 °F 22.5 °F 24.8 °F 75% 30.30 in 10.0 mi NW 12.7 mph - N/A   Clear
6:15 AM 30.2 °F 21.3 °F 24.8 °F 80% 30.30 in 10.0 mi NW 10.4 mph - N/A   Clear
6:35 AM 30.2 °F 20.2 °F 23.0 °F 75% 30.29 in 10.0 mi NW 12.7 mph - N/A   Clear
6:55 AM 30.2 °F 21.9 °F 24.8 °F 80% 30.29 in 10.0 mi WNW 9.2 mph - N/A   Clear
7:15 AM 30.2 °F 21.3 °F 23.0 °F 75% 30.30 in 10.0 mi WNW 10.4 mph - N/A   Clear
7:35 AM 30.2 °F 21.3 °F 24.8 °F 80% 30.30 in 10.0 mi WNW 10.4 mph - N/A   Clear
7:55 AM 30.2 °F 20.8 °F 24.8 °F 80% 30.31 in 10.0 mi WNW 11.5 mph - N/A   Clear
8:15 AM 30.2 °F 20.8 °F 24.8 °F 80% 30.31 in 10.0 mi WNW 11.5 mph - N/A   Clear
8:35 AM 32.0 °F 23.6 °F 24.8 °F 75% 30.32 in 10.0 mi WNW 10.4 mph - N/A   Clear
8:55 AM 33.8 °F 25.3 °F 26.6 °F 75% 30.32 in 10.0 mi WNW 11.5 mph - N/A   Clear
9:15 AM 33.8 °F 24.8 °F 26.6 °F 75% 30.32 in 10.0 mi WNW 12.7 mph - N/A   Clear
9:35 AM 35.6 °F 27.5 °F 26.6 °F 70% 30.33 in 10.0 mi NW 11.5 mph - N/A   Clear
9:55 AM 35.6 °F 26.6 °F 26.6 °F 70% 30.33 in 10.0 mi WNW 13.8 mph - N/A   Clear
10:15 AM 37.4 °F 28.9 °F 26.6 °F 65% 30.35 in 10.0 mi WNW 13.8 mph - N/A   Clear
10:35 AM 37.4 °F 29.8 °F 26.6 °F 65% 30.35 in 10.0 mi WNW 11.5 mph - N/A   Clear
10:55 AM 39.2 °F 32.5 °F 26.6 °F 61% 30.35 in 10.0 mi WNW 10.4 mph - N/A   Clear
11:35 AM 42.8 °F 34.8 °F 24.8 °F 49% 30.34 in 10.0 mi West 17.3 mph 20.7 mph N/A   Clear
11:55 AM 44.6 °F 36.4 °F 24.8 °F 46% 30.34 in 10.0 mi West 20.7 mph 24.2 mph N/A   Clear
12:15 PM 44.6 °F 36.6 °F 24.8 °F 46% 30.34 in 10.0 mi NW 19.6 mph 25.3 mph N/A   Clear
12:35 PM 46.4 °F 39.0 °F 23.0 °F 40% 30.33 in 10.0 mi WNW 19.6 mph 24.2 mph N/A   Clear
12:55 PM 46.4 °F 39.0 °F 23.0 °F 40% 30.33 in 10.0 mi WNW 19.6 mph 25.3 mph N/A   Clear
1:35 PM 48.2 °F - 21.2 °F 34% 30.30 in 10.0 mi West 23.0 mph 28.8 mph N/A   Clear
1:55 PM 48.2 °F - 21.2 °F 34% 30.29 in 10.0 mi WNW 21.9 mph 27.6 mph N/A   Clear
2:15 PM 48.2 °F - 19.4 °F 32% 30.28 in 10.0 mi WNW 21.9 mph 27.6 mph N/A   Clear
2:35 PM 48.2 °F - 21.2 °F 34% 30.28 in 10.0 mi WNW 19.6 mph 29.9 mph N/A   Clear
2:55 PM 51.8 °F - 23.0 °F 33% 30.27 in 10.0 mi NW 20.7 mph 26.5 mph N/A   Clear
3:15 PM 50.0 °F - 21.2 °F 32% 30.27 in 10.0 mi NW 20.7 mph 27.6 mph N/A   Clear
3:35 PM 51.8 °F - 23.0 °F 33% 30.26 in 10.0 mi WNW 23.0 mph 27.6 mph N/A   Clear
3:55 PM 51.8 °F - 21.2 °F 30% 30.25 in 10.0 mi WNW 20.7 mph 28.8 mph N/A   Clear
4:15 PM 51.8 °F - 19.4 °F 28% 30.25 in 10.0 mi NW 13.8 mph 25.3 mph N/A   Clear
4:35 PM 51.8 °F - 19.4 °F 28% 30.25 in 10.0 mi WNW 18.4 mph 25.3 mph N/A   Clear
4:55 PM 51.8 °F - 19.4 °F 28% 30.25 in 10.0 mi WNW 20.7 mph 25.3 mph N/A   Clear
5:15 PM 50.0 °F - 19.4 °F 30% 30.25 in 10.0 mi WNW 18.4 mph 27.6 mph N/A   Clear
5:35 PM 50.0 °F - 19.4 °F 30% 30.25 in 10.0 mi WNW 19.6 mph 28.8 mph N/A   Clear
5:55 PM 50.0 °F - 19.4 °F 30% 30.25 in 10.0 mi WNW 21.9 mph 25.3 mph N/A   Clear
6:15 PM 48.2 °F - 19.4 °F 32% 30.26 in 10.0 mi WNW 17.3 mph 26.5 mph N/A   Clear
6:35 PM 46.4 °F 40.1 °F 17.6 °F 32% 30.26 in 10.0 mi NW 15.0 mph 20.7 mph N/A   Clear
6:55 PM 46.4 °F 40.7 °F 17.6 °F 32% 30.27 in 10.0 mi NW 12.7 mph - N/A   Clear
7:15 PM 44.6 °F 38.8 °F 17.6 °F 34% 30.27 in 10.0 mi NW 11.5 mph - N/A   Clear
7:35 PM 41.0 °F 34.7 °F 17.6 °F 39% 30.28 in 10.0 mi WNW 10.4 mph - N/A   Clear
7:55 PM 41.0 °F 34.7 °F 17.6 °F 39% 30.28 in 10.0 mi WNW 10.4 mph - N/A   Clear
8:15 PM 41.0 °F 34.3 °F 15.8 °F 36% 30.29 in 10.0 mi WNW 11.5 mph - N/A   Clear
8:35 PM 39.2 °F 33.6 °F 17.6 °F 42% 30.29 in 10.0 mi WNW 8.1 mph - N/A   Clear
8:55 PM 39.2 °F 33.0 °F 17.6 °F 42% 30.29 in 10.0 mi NW 9.2 mph - N/A   Clear
9:15 PM 37.4 °F 30.3 °F 15.8 °F 41% 30.29 in 10.0 mi NW 10.4 mph - N/A   Clear
9:35 PM 39.2 °F 31.6 °F 17.6 °F 42% 30.30 in 10.0 mi NW 12.7 mph - N/A   Clear
9:55 PM 37.4 °F 29.3 °F 17.6 °F 45% 30.31 in 10.0 mi NW 12.7 mph - N/A   Clear
10:35 PM 35.6 °F 27.1 °F 17.6 °F 48% 30.32 in 10.0 mi NNW 12.7 mph - N/A   Clear
10:55 PM 35.6 °F 28.0 °F 17.6 °F 48% 30.32 in 10.0 mi NNW 10.4 mph - N/A   Clear
11:15 PM 33.8 °F 26.4 °F 17.6 °F 52% 30.33 in 10.0 mi NW 9.2 mph - N/A   Clear
11:35 PM 32.0 °F 24.8 °F 17.6 °F 55% 30.33 in 10.0 mi NW 8.1 mph - N/A   Clear
11:55 PM 30.2 °F 22.6 °F 17.6 °F 60% 30.33 in 10.0 mi NW 8.1 mph - N/A   Clear